sensor_id;sensor_type;location;lat;lon;timestamp;temperature;humidity
46492;DHT22;32206;51.446;6.792;2022-08-03T00:01:27;23.60;1.00
46492;DHT22;32206;51.446;6.792;2022-08-03T00:03:53;23.50;1.00
46492;DHT22;32206;51.446;6.792;2022-08-03T00:06:18;23.50;1.00
46492;DHT22;32206;51.446;6.792;2022-08-03T00:08:44;23.50;13.80
46492;DHT22;32206;51.446;6.792;2022-08-03T00:11:09;23.50;9.60
46492;DHT22;32206;51.446;6.792;2022-08-03T00:13:35;23.40;1.00
46492;DHT22;32206;51.446;6.792;2022-08-03T00:16:01;23.40;35.10
46492;DHT22;32206;51.446;6.792;2022-08-03T00:18:26;23.40;99.90
46492;DHT22;32206;51.446;6.792;2022-08-03T00:20:52;23.40;39.10
46492;DHT22;32206;51.446;6.792;2022-08-03T00:23:18;23.40;99.90
46492;DHT22;32206;51.446;6.792;2022-08-03T00:25:43;23.30;1.00
46492;DHT22;32206;51.446;6.792;2022-08-03T00:28:09;23.30;1.00
46492;DHT22;32206;51.446;6.792;2022-08-03T00:30:35;23.30;36.70
46492;DHT22;32206;51.446;6.792;2022-08-03T00:33:01;23.30;1.00
46492;DHT22;32206;51.446;6.792;2022-08-03T00:35:27;23.20;1.00
46492;DHT22;32206;51.446;6.792;2022-08-03T00:37:53;23.30;11.00
46492;DHT22;32206;51.446;6.792;2022-08-03T00:40:20;23.20;1.00
46492;DHT22;32206;51.446;6.792;2022-08-03T00:42:57;23.10;99.90
46492;DHT22;32206;51.446;6.792;2022-08-03T00:45:27;23.10;99.90
46492;DHT22;32206;51.446;6.792;2022-08-03T00:47:54;23.00;99.90
46492;DHT22;32206;51.446;6.792;2022-08-03T00:50:22;23.00;99.90
46492;DHT22;32206;51.446;6.792;2022-08-03T00:52:49;23.00;99.90
46492;DHT22;32206;51.446;6.792;2022-08-03T00:55:16;23.00;99.90
46492;DHT22;32206;51.446;6.792;2022-08-03T00:57:42;22.90;99.90
46492;DHT22;32206;51.446;6.792;2022-08-03T01:00:09;23.00;99.90
46492;DHT22;32206;51.446;6.792;2022-08-03T01:02:36;23.00;99.90
46492;DHT22;32206;51.446;6.792;2022-08-03T01:05:02;23.00;99.90
46492;DHT22;32206;51.446;6.792;2022-08-03T01:10:53;23.00;99.90
46492;DHT22;32206;51.446;6.792;2022-08-03T01:13:28;22.90;99.90
46492;DHT22;32206;51.446;6.792;2022-08-03T01:18:44;22.90;99.90
46492;DHT22;32206;51.446;6.792;2022-08-03T01:21:11;22.80;99.90
46492;DHT22;32206;51.446;6.792;2022-08-03T01:29:27;22.70;99.90
46492;DHT22;32206;51.446;6.792;2022-08-03T01:32:00;22.80;99.90
46492;DHT22;32206;51.446;6.792;2022-08-03T01:34:31;22.80;99.90
46492;DHT22;32206;51.446;6.792;2022-08-03T01:37:02;22.70;99.90
46492;DHT22;32206;51.446;6.792;2022-08-03T01:39:29;22.70;99.90
46492;DHT22;32206;51.446;6.792;2022-08-03T01:41:59;22.70;99.90
46492;DHT22;32206;51.446;6.792;2022-08-03T01:44:29;22.70;99.90
46492;DHT22;32206;51.446;6.792;2022-08-03T01:46:59;22.60;99.90
46492;DHT22;32206;51.446;6.792;2022-08-03T01:49:28;22.60;99.90
46492;DHT22;32206;51.446;6.792;2022-08-03T01:51:55;22.50;99.90
46492;DHT22;32206;51.446;6.792;2022-08-03T01:54:22;22.50;99.90
46492;DHT22;32206;51.446;6.792;2022-08-03T01:56:50;22.50;99.90
46492;DHT22;32206;51.446;6.792;2022-08-03T01:59:18;22.50;99.90
46492;DHT22;32206;51.446;6.792;2022-08-03T02:01:45;22.50;99.90
46492;DHT22;32206;51.446;6.792;2022-08-03T02:04:13;22.50;99.90
46492;DHT22;32206;51.446;6.792;2022-08-03T02:06:42;22.40;99.90
46492;DHT22;32206;51.446;6.792;2022-08-03T02:09:10;22.40;99.90
46492;DHT22;32206;51.446;6.792;2022-08-03T02:11:37;22.30;99.90
46492;DHT22;32206;51.446;6.792;2022-08-03T02:14:04;22.30;99.90
46492;DHT22;32206;51.446;6.792;2022-08-03T02:16:32;22.30;99.90
46492;DHT22;32206;51.446;6.792;2022-08-03T02:19:01;22.20;99.90
46492;DHT22;32206;51.446;6.792;2022-08-03T02:21:29;22.30;99.90
46492;DHT22;32206;51.446;6.792;2022-08-03T02:23:56;22.20;99.90
46492;DHT22;32206;51.446;6.792;2022-08-03T02:26:23;22.20;99.90
46492;DHT22;32206;51.446;6.792;2022-08-03T02:28:51;22.20;99.90
46492;DHT22;32206;51.446;6.792;2022-08-03T02:31:22;22.10;99.90
46492;DHT22;32206;51.446;6.792;2022-08-03T02:33:53;22.10;1.00
46492;DHT22;32206;51.446;6.792;2022-08-03T02:36:22;22.10;1.00
46492;DHT22;32206;51.446;6.792;2022-08-03T02:38:51;22.10;1.00
46492;DHT22;32206;51.446;6.792;2022-08-03T02:41:21;22.10;1.00
46492;DHT22;32206;51.446;6.792;2022-08-03T02:43:50;22.10;1.00
46492;DHT22;32206;51.446;6.792;2022-08-03T02:46:19;22.10;1.00
46492;DHT22;32206;51.446;6.792;2022-08-03T02:48:47;22.10;1.00
46492;DHT22;32206;51.446;6.792;2022-08-03T02:51:16;22.00;1.00
46492;DHT22;32206;51.446;6.792;2022-08-03T02:53:44;22.10;1.00
46492;DHT22;32206;51.446;6.792;2022-08-03T02:56:11;22.00;1.00
46492;DHT22;32206;51.446;6.792;2022-08-03T02:58:39;22.00;1.00
46492;DHT22;32206;51.446;6.792;2022-08-03T03:01:06;21.90;1.00
46492;DHT22;32206;51.446;6.792;2022-08-03T03:03:32;21.80;1.00
46492;DHT22;32206;51.446;6.792;2022-08-03T03:06:00;21.80;1.00
46492;DHT22;32206;51.446;6.792;2022-08-03T03:08:26;21.70;1.00
46492;DHT22;32206;51.446;6.792;2022-08-03T03:10:57;21.70;1.00
46492;DHT22;32206;51.446;6.792;2022-08-03T03:13:23;21.70;1.00
46492;DHT22;32206;51.446;6.792;2022-08-03T03:15:51;21.60;1.00
46492;DHT22;32206;51.446;6.792;2022-08-03T03:18:17;21.60;1.00
46492;DHT22;32206;51.446;6.792;2022-08-03T03:20:44;21.60;1.00
46492;DHT22;32206;51.446;6.792;2022-08-03T03:23:10;21.60;1.00
46492;DHT22;32206;51.446;6.792;2022-08-03T03:25:37;21.60;1.00
46492;DHT22;32206;51.446;6.792;2022-08-03T03:28:03;21.60;1.00
46492;DHT22;32206;51.446;6.792;2022-08-03T03:30:29;21.50;1.00
46492;DHT22;32206;51.446;6.792;2022-08-03T03:32:57;21.50;1.00
46492;DHT22;32206;51.446;6.792;2022-08-03T03:35:22;21.50;1.00
46492;DHT22;32206;51.446;6.792;2022-08-03T03:37:48;21.50;1.00
46492;DHT22;32206;51.446;6.792;2022-08-03T03:40:14;21.40;1.00
46492;DHT22;32206;51.446;6.792;2022-08-03T03:42:40;21.40;1.00
46492;DHT22;32206;51.446;6.792;2022-08-03T03:45:07;21.40;1.00
46492;DHT22;32206;51.446;6.792;2022-08-03T03:47:33;21.40;1.00
46492;DHT22;32206;51.446;6.792;2022-08-03T03:50:01;21.40;1.00
46492;DHT22;32206;51.446;6.792;2022-08-03T03:52:26;21.40;1.00
46492;DHT22;32206;51.446;6.792;2022-08-03T03:54:52;21.30;1.00
46492;DHT22;32206;51.446;6.792;2022-08-03T03:57:18;21.30;1.00
46492;DHT22;32206;51.446;6.792;2022-08-03T03:59:43;21.30;1.00
46492;DHT22;32206;51.446;6.792;2022-08-03T04:02:10;21.30;1.00
46492;DHT22;32206;51.446;6.792;2022-08-03T04:04:36;21.30;1.00
46492;DHT22;32206;51.446;6.792;2022-08-03T04:07:23;21.30;1.00
46492;DHT22;32206;51.446;6.792;2022-08-03T04:10:12;21.30;1.00
46492;DHT22;32206;51.446;6.792;2022-08-03T04:12:58;21.20;1.00
46492;DHT22;32206;51.446;6.792;2022-08-03T04:15:27;21.20;1.00
46492;DHT22;32206;51.446;6.792;2022-08-03T04:17:55;21.20;1.00
46492;DHT22;32206;51.446;6.792;2022-08-03T04:20:22;21.10;1.00
46492;DHT22;32206;51.446;6.792;2022-08-03T04:22:50;21.10;1.00
46492;DHT22;32206;51.446;6.792;2022-08-03T04:25:17;21.10;1.00
46492;DHT22;32206;51.446;6.792;2022-08-03T04:27:46;21.00;1.00
46492;DHT22;32206;51.446;6.792;2022-08-03T04:30:13;21.00;1.00
46492;DHT22;32206;51.446;6.792;2022-08-03T04:32:39;21.00;1.00
46492;DHT22;32206;51.446;6.792;2022-08-03T04:35:08;21.00;1.00
46492;DHT22;32206;51.446;6.792;2022-08-03T04:37:46;21.00;1.00
46492;DHT22;32206;51.446;6.792;2022-08-03T04:40:15;21.00;1.00
46492;DHT22;32206;51.446;6.792;2022-08-03T04:42:43;21.00;1.00
46492;DHT22;32206;51.446;6.792;2022-08-03T04:45:14;20.90;1.00
46492;DHT22;32206;51.446;6.792;2022-08-03T04:47:41;20.90;1.00
46492;DHT22;32206;51.446;6.792;2022-08-03T04:50:07;20.90;1.00
46492;DHT22;32206;51.446;6.792;2022-08-03T04:52:34;20.90;1.00
46492;DHT22;32206;51.446;6.792;2022-08-03T04:54:59;20.90;1.00
46492;DHT22;32206;51.446;6.792;2022-08-03T04:57:25;20.90;1.00
46492;DHT22;32206;51.446;6.792;2022-08-03T04:59:52;20.90;1.00
46492;DHT22;32206;51.446;6.792;2022-08-03T05:02:21;20.90;1.00
46492;DHT22;32206;51.446;6.792;2022-08-03T05:04:48;21.00;1.00
46492;DHT22;32206;51.446;6.792;2022-08-03T05:07:16;20.90;1.00
46492;DHT22;32206;51.446;6.792;2022-08-03T05:09:43;21.00;1.00
46492;DHT22;32206;51.446;6.792;2022-08-03T05:12:08;21.00;1.00
46492;DHT22;32206;51.446;6.792;2022-08-03T05:14:35;21.10;1.00
46492;DHT22;32206;51.446;6.792;2022-08-03T05:17:04;21.10;1.00
46492;DHT22;32206;51.446;6.792;2022-08-03T05:19:30;21.10;1.00
46492;DHT22;32206;51.446;6.792;2022-08-03T05:21:56;21.10;1.00
46492;DHT22;32206;51.446;6.792;2022-08-03T05:24:22;21.10;1.00
46492;DHT22;32206;51.446;6.792;2022-08-03T05:26:48;21.20;1.00
46492;DHT22;32206;51.446;6.792;2022-08-03T05:29:14;21.10;1.00
46492;DHT22;32206;51.446;6.792;2022-08-03T05:31:39;21.20;1.00
46492;DHT22;32206;51.446;6.792;2022-08-03T05:34:05;21.20;1.00
46492;DHT22;32206;51.446;6.792;2022-08-03T05:36:31;21.20;1.00
46492;DHT22;32206;51.446;6.792;2022-08-03T05:38:56;21.30;1.00
46492;DHT22;32206;51.446;6.792;2022-08-03T05:41:22;21.50;1.00
46492;DHT22;32206;51.446;6.792;2022-08-03T05:43:48;21.30;1.00
46492;DHT22;32206;51.446;6.792;2022-08-03T05:46:14;21.50;1.00
46492;DHT22;32206;51.446;6.792;2022-08-03T05:48:40;21.50;1.00
46492;DHT22;32206;51.446;6.792;2022-08-03T05:51:06;21.50;1.00
46492;DHT22;32206;51.446;6.792;2022-08-03T05:53:35;21.60;1.00
46492;DHT22;32206;51.446;6.792;2022-08-03T05:56:01;21.60;1.00
46492;DHT22;32206;51.446;6.792;2022-08-03T05:58:27;21.60;1.00
46492;DHT22;32206;51.446;6.792;2022-08-03T06:00:53;21.60;1.00
46492;DHT22;32206;51.446;6.792;2022-08-03T06:03:19;21.70;1.00
46492;DHT22;32206;51.446;6.792;2022-08-03T06:05:44;21.80;1.00
46492;DHT22;32206;51.446;6.792;2022-08-03T06:08:10;21.80;1.00
46492;DHT22;32206;51.446;6.792;2022-08-03T06:10:37;21.90;1.00
46492;DHT22;32206;51.446;6.792;2022-08-03T06:13:03;21.90;1.00
46492;DHT22;32206;51.446;6.792;2022-08-03T06:15:28;22.00;1.00
46492;DHT22;32206;51.446;6.792;2022-08-03T06:17:55;22.00;1.00
46492;DHT22;32206;51.446;6.792;2022-08-03T06:20:22;22.10;1.00
46492;DHT22;32206;51.446;6.792;2022-08-03T06:22:48;22.10;1.00
46492;DHT22;32206;51.446;6.792;2022-08-03T06:25:13;22.10;1.00
46492;DHT22;32206;51.446;6.792;2022-08-03T06:27:40;22.20;1.00
46492;DHT22;32206;51.446;6.792;2022-08-03T06:30:06;22.30;1.00
46492;DHT22;32206;51.446;6.792;2022-08-03T06:32:33;22.30;1.00
46492;DHT22;32206;51.446;6.792;2022-08-03T06:34:59;22.30;1.00
46492;DHT22;32206;51.446;6.792;2022-08-03T06:37:25;22.40;1.00
46492;DHT22;32206;51.446;6.792;2022-08-03T06:39:52;22.40;1.00
46492;DHT22;32206;51.446;6.792;2022-08-03T06:42:17;22.60;1.00
46492;DHT22;32206;51.446;6.792;2022-08-03T06:44:43;22.60;1.00
46492;DHT22;32206;51.446;6.792;2022-08-03T06:47:08;22.70;99.90
46492;DHT22;32206;51.446;6.792;2022-08-03T06:49:34;22.80;99.90
46492;DHT22;32206;51.446;6.792;2022-08-03T06:52:00;22.90;99.90
46492;DHT22;32206;51.446;6.792;2022-08-03T06:54:25;22.90;99.90
46492;DHT22;32206;51.446;6.792;2022-08-03T06:56:51;23.00;99.90
46492;DHT22;32206;51.446;6.792;2022-08-03T06:59:17;23.00;99.90
46492;DHT22;32206;51.446;6.792;2022-08-03T07:01:42;23.10;99.90
46492;DHT22;32206;51.446;6.792;2022-08-03T07:04:08;23.10;99.90
46492;DHT22;32206;51.446;6.792;2022-08-03T07:06:33;23.20;99.90
46492;DHT22;32206;51.446;6.792;2022-08-03T07:08:59;23.30;99.90
46492;DHT22;32206;51.446;6.792;2022-08-03T07:11:25;23.30;99.90
46492;DHT22;32206;51.446;6.792;2022-08-03T07:13:52;23.40;99.90
46492;DHT22;32206;51.446;6.792;2022-08-03T07:16:18;23.50;99.90
46492;DHT22;32206;51.446;6.792;2022-08-03T07:18:44;23.50;99.90
46492;DHT22;32206;51.446;6.792;2022-08-03T07:21:10;23.60;99.90
46492;DHT22;32206;51.446;6.792;2022-08-03T07:23:37;23.70;99.90
46492;DHT22;32206;51.446;6.792;2022-08-03T07:26:03;23.80;99.90
46492;DHT22;32206;51.446;6.792;2022-08-03T07:28:28;23.80;94.90
46492;DHT22;32206;51.446;6.792;2022-08-03T07:30:54;23.90;99.90
46492;DHT22;32206;51.446;6.792;2022-08-03T07:33:19;24.00;6.40
46492;DHT22;32206;51.446;6.792;2022-08-03T07:35:45;24.00;74.20
46492;DHT22;32206;51.446;6.792;2022-08-03T07:38:11;24.20;37.80
46492;DHT22;32206;51.446;6.792;2022-08-03T07:40:36;24.30;80.90
46492;DHT22;32206;51.446;6.792;2022-08-03T07:43:02;24.30;1.00
46492;DHT22;32206;51.446;6.792;2022-08-03T07:45:30;24.40;99.90
46492;DHT22;32206;51.446;6.792;2022-08-03T07:47:56;24.50;99.90
46492;DHT22;32206;51.446;6.792;2022-08-03T07:50:22;24.60;99.90
46492;DHT22;32206;51.446;6.792;2022-08-03T07:52:48;24.70;1.00
46492;DHT22;32206;51.446;6.792;2022-08-03T07:55:15;24.80;99.90
46492;DHT22;32206;51.446;6.792;2022-08-03T07:57:41;24.80;1.00
46492;DHT22;32206;51.446;6.792;2022-08-03T08:00:18;25.00;81.30
46492;DHT22;32206;51.446;6.792;2022-08-03T08:02:45;25.10;98.20
46492;DHT22;32206;51.446;6.792;2022-08-03T08:05:10;25.20;1.00
46492;DHT22;32206;51.446;6.792;2022-08-03T08:07:37;25.30;94.00
46492;DHT22;32206;51.446;6.792;2022-08-03T08:10:05;25.30;99.90
46492;DHT22;32206;51.446;6.792;2022-08-03T08:12:31;25.50;1.00
46492;DHT22;32206;51.446;6.792;2022-08-03T08:14:57;25.60;99.90
46492;DHT22;32206;51.446;6.792;2022-08-03T08:17:22;25.60;1.00
46492;DHT22;32206;51.446;6.792;2022-08-03T08:19:48;25.70;99.90
46492;DHT22;32206;51.446;6.792;2022-08-03T08:22:13;25.70;99.90
46492;DHT22;32206;51.446;6.792;2022-08-03T08:24:39;25.80;99.90
46492;DHT22;32206;51.446;6.792;2022-08-03T08:27:05;25.80;1.00
46492;DHT22;32206;51.446;6.792;2022-08-03T08:29:30;25.90;1.00
46492;DHT22;32206;51.446;6.792;2022-08-03T08:31:56;26.10;66.40
46492;DHT22;32206;51.446;6.792;2022-08-03T08:34:21;26.00;1.00
46492;DHT22;32206;51.446;6.792;2022-08-03T08:36:47;26.00;99.90
46492;DHT22;32206;51.446;6.792;2022-08-03T08:39:13;26.10;1.00
46492;DHT22;32206;51.446;6.792;2022-08-03T08:41:38;26.30;1.00
46492;DHT22;32206;51.446;6.792;2022-08-03T08:44:04;26.30;99.90
46492;DHT22;32206;51.446;6.792;2022-08-03T08:46:32;26.40;99.90
46492;DHT22;32206;51.446;6.792;2022-08-03T08:48:58;26.50;99.90
46492;DHT22;32206;51.446;6.792;2022-08-03T08:51:29;26.60;99.90
46492;DHT22;32206;51.446;6.792;2022-08-03T08:53:56;26.60;1.00
46492;DHT22;32206;51.446;6.792;2022-08-03T08:56:25;26.60;1.00
46492;DHT22;32206;51.446;6.792;2022-08-03T08:58:59;26.70;1.00
46492;DHT22;32206;51.446;6.792;2022-08-03T09:01:25;26.80;99.90
46492;DHT22;32206;51.446;6.792;2022-08-03T09:03:50;26.80;99.90
46492;DHT22;32206;51.446;6.792;2022-08-03T09:06:19;26.90;99.90
46492;DHT22;32206;51.446;6.792;2022-08-03T09:08:44;27.00;99.90
46492;DHT22;32206;51.446;6.792;2022-08-03T09:11:10;27.00;99.90
46492;DHT22;32206;51.446;6.792;2022-08-03T09:13:36;27.10;1.00
46492;DHT22;32206;51.446;6.792;2022-08-03T09:16:17;27.30;1.00
46492;DHT22;32206;51.446;6.792;2022-08-03T09:18:44;27.30;99.90
46492;DHT22;32206;51.446;6.792;2022-08-03T09:23:50;27.40;99.90
46492;DHT22;32206;51.446;6.792;2022-08-03T09:26:23;27.40;99.90
46492;DHT22;32206;51.446;6.792;2022-08-03T09:29:07;27.50;99.90
46492;DHT22;32206;51.446;6.792;2022-08-03T09:31:34;27.50;99.90
46492;DHT22;32206;51.446;6.792;2022-08-03T09:34:05;27.50;99.90
46492;DHT22;32206;51.446;6.792;2022-08-03T09:36:41;27.60;99.90
46492;DHT22;32206;51.446;6.792;2022-08-03T09:41:39;27.70;99.90
46492;DHT22;32206;51.446;6.792;2022-08-03T09:44:05;27.90;99.90
46492;DHT22;32206;51.446;6.792;2022-08-03T09:46:31;28.00;99.90
46492;DHT22;32206;51.446;6.792;2022-08-03T09:49:12;28.00;99.90
46492;DHT22;32206;51.446;6.792;2022-08-03T09:51:39;28.00;99.90
46492;DHT22;32206;51.446;6.792;2022-08-03T09:54:05;28.10;99.90
46492;DHT22;32206;51.446;6.792;2022-08-03T09:56:42;28.20;99.90
46492;DHT22;32206;51.446;6.792;2022-08-03T09:59:09;28.40;99.90
46492;DHT22;32206;51.446;6.792;2022-08-03T10:01:36;28.40;99.90
46492;DHT22;32206;51.446;6.792;2022-08-03T10:04:03;28.50;99.90
46492;DHT22;32206;51.446;6.792;2022-08-03T10:06:29;28.50;33.70
46492;DHT22;32206;51.446;6.792;2022-08-03T10:09:04;28.60;1.00
46492;DHT22;32206;51.446;6.792;2022-08-03T10:11:31;28.70;1.00
46492;DHT22;32206;51.446;6.792;2022-08-03T10:14:03;28.70;1.00
46492;DHT22;32206;51.446;6.792;2022-08-03T10:16:34;28.70;1.00
46492;DHT22;32206;51.446;6.792;2022-08-03T10:19:01;28.80;1.00
46492;DHT22;32206;51.446;6.792;2022-08-03T10:21:33;29.00;1.00
46492;DHT22;32206;51.446;6.792;2022-08-03T10:24:05;29.10;1.00
46492;DHT22;32206;51.446;6.792;2022-08-03T10:26:33;29.20;1.00
46492;DHT22;32206;51.446;6.792;2022-08-03T10:29:02;29.30;1.00
46492;DHT22;32206;51.446;6.792;2022-08-03T10:31:36;29.40;1.00
46492;DHT22;32206;51.446;6.792;2022-08-03T10:34:03;29.50;1.00
46492;DHT22;32206;51.446;6.792;2022-08-03T10:36:31;29.50;1.00
46492;DHT22;32206;51.446;6.792;2022-08-03T10:38:58;29.80;1.00
46492;DHT22;32206;51.446;6.792;2022-08-03T10:41:32;29.90;1.00
46492;DHT22;32206;51.446;6.792;2022-08-03T10:44:06;30.00;1.00
46492;DHT22;32206;51.446;6.792;2022-08-03T10:46:33;30.00;1.00
46492;DHT22;32206;51.446;6.792;2022-08-03T10:49:00;30.10;99.90
46492;DHT22;32206;51.446;6.792;2022-08-03T10:51:26;30.10;1.00
46492;DHT22;32206;51.446;6.792;2022-08-03T10:53:59;30.20;1.00
46492;DHT22;32206;51.446;6.792;2022-08-03T10:59:15;30.40;1.00
46492;DHT22;32206;51.446;6.792;2022-08-03T11:01:51;30.50;99.90
46492;DHT22;32206;51.446;6.792;2022-08-03T11:04:21;30.60;99.90
46492;DHT22;32206;51.446;6.792;2022-08-03T11:09:44;30.60;99.90
46492;DHT22;32206;51.446;6.792;2022-08-03T11:12:28;30.60;99.90
46492;DHT22;32206;51.446;6.792;2022-08-03T11:14:55;30.70;99.90
46492;DHT22;32206;51.446;6.792;2022-08-03T11:17:22;30.70;99.90
46492;DHT22;32206;51.446;6.792;2022-08-03T11:19:49;30.60;99.90
46492;DHT22;32206;51.446;6.792;2022-08-03T11:22:17;30.70;99.90
46492;DHT22;32206;51.446;6.792;2022-08-03T11:43:07;31.30;99.90
46492;DHT22;32206;51.446;6.792;2022-08-03T11:45:34;31.40;99.90
46492;DHT22;32206;51.446;6.792;2022-08-03T11:48:15;31.50;99.90
46492;DHT22;32206;51.446;6.792;2022-08-03T11:50:42;31.60;99.90
46492;DHT22;32206;51.446;6.792;2022-08-03T11:53:14;31.70;99.90
46492;DHT22;32206;51.446;6.792;2022-08-03T11:55:40;31.70;99.90
46492;DHT22;32206;51.446;6.792;2022-08-03T11:58:14;31.90;99.90
46492;DHT22;32206;51.446;6.792;2022-08-03T12:00:40;31.90;99.90
46492;DHT22;32206;51.446;6.792;2022-08-03T12:03:08;31.90;99.90
46492;DHT22;32206;51.446;6.792;2022-08-03T12:08:12;32.00;99.90
46492;DHT22;32206;51.446;6.792;2022-08-03T12:10:43;32.00;99.90
46492;DHT22;32206;51.446;6.792;2022-08-03T12:13:10;32.00;99.90
46492;DHT22;32206;51.446;6.792;2022-08-03T12:15:36;32.00;99.90
46492;DHT22;32206;51.446;6.792;2022-08-03T12:18:12;32.10;99.90
46492;DHT22;32206;51.446;6.792;2022-08-03T12:20:39;32.10;99.90
46492;DHT22;32206;51.446;6.792;2022-08-03T12:23:05;32.10;99.90
46492;DHT22;32206;51.446;6.792;2022-08-03T12:25:33;32.00;99.90
46492;DHT22;32206;51.446;6.792;2022-08-03T12:28:07;32.00;99.90
46492;DHT22;32206;51.446;6.792;2022-08-03T12:30:33;32.00;99.90
46492;DHT22;32206;51.446;6.792;2022-08-03T12:33:14;32.10;99.90
46492;DHT22;32206;51.446;6.792;2022-08-03T12:35:40;32.30;99.90
46492;DHT22;32206;51.446;6.792;2022-08-03T12:38:06;32.40;99.90
46492;DHT22;32206;51.446;6.792;2022-08-03T12:40:31;32.60;99.90
46492;DHT22;32206;51.446;6.792;2022-08-03T12:42:57;32.80;99.90
46492;DHT22;32206;51.446;6.792;2022-08-03T12:45:27;32.80;99.90
46492;DHT22;32206;51.446;6.792;2022-08-03T12:48:01;32.90;99.90
46492;DHT22;32206;51.446;6.792;2022-08-03T12:50:32;33.00;99.90
46492;DHT22;32206;51.446;6.792;2022-08-03T12:52:59;33.00;99.90
46492;DHT22;32206;51.446;6.792;2022-08-03T12:55:26;33.10;99.90
46492;DHT22;32206;51.446;6.792;2022-08-03T12:58:02;33.20;99.90
46492;DHT22;32206;51.446;6.792;2022-08-03T13:00:28;33.20;99.90
46492;DHT22;32206;51.446;6.792;2022-08-03T13:03:01;33.30;99.90
46492;DHT22;32206;51.446;6.792;2022-08-03T13:05:28;33.40;99.90
46492;DHT22;32206;51.446;6.792;2022-08-03T13:07:54;33.40;99.90
46492;DHT22;32206;51.446;6.792;2022-08-03T13:10:32;33.30;99.90
46492;DHT22;32206;51.446;6.792;2022-08-03T13:12:58;33.50;99.90
46492;DHT22;32206;51.446;6.792;2022-08-03T13:15:27;33.40;99.90
46492;DHT22;32206;51.446;6.792;2022-08-03T13:17:56;33.40;99.90
46492;DHT22;32206;51.446;6.792;2022-08-03T13:20:22;33.40;99.90
46492;DHT22;32206;51.446;6.792;2022-08-03T13:22:49;33.40;99.90
46492;DHT22;32206;51.446;6.792;2022-08-03T13:25:16;33.40;99.90
46492;DHT22;32206;51.446;6.792;2022-08-03T13:27:42;33.50;99.90
46492;DHT22;32206;51.446;6.792;2022-08-03T13:30:08;33.60;99.90
46492;DHT22;32206;51.446;6.792;2022-08-03T13:32:34;33.50;99.90
46492;DHT22;32206;51.446;6.792;2022-08-03T13:35:00;33.60;99.90
46492;DHT22;32206;51.446;6.792;2022-08-03T13:37:27;33.60;99.90
46492;DHT22;32206;51.446;6.792;2022-08-03T13:39:53;33.60;99.90
46492;DHT22;32206;51.446;6.792;2022-08-03T13:42:19;33.50;99.90
46492;DHT22;32206;51.446;6.792;2022-08-03T13:44:44;33.40;99.90
46492;DHT22;32206;51.446;6.792;2022-08-03T13:47:11;33.60;99.90
46492;DHT22;32206;51.446;6.792;2022-08-03T13:49:36;33.70;99.90
46492;DHT22;32206;51.446;6.792;2022-08-03T13:52:02;33.80;99.90
46492;DHT22;32206;51.446;6.792;2022-08-03T13:54:28;33.70;99.90
46492;DHT22;32206;51.446;6.792;2022-08-03T13:56:55;33.60;99.90
46492;DHT22;32206;51.446;6.792;2022-08-03T13:59:21;33.70;99.90
46492;DHT22;32206;51.446;6.792;2022-08-03T14:01:49;33.70;99.90
46492;DHT22;32206;51.446;6.792;2022-08-03T14:04:15;33.70;99.90
46492;DHT22;32206;51.446;6.792;2022-08-03T14:06:40;33.60;99.90
46492;DHT22;32206;51.446;6.792;2022-08-03T14:09:06;33.80;99.90
46492;DHT22;32206;51.446;6.792;2022-08-03T14:11:32;33.80;99.90
46492;DHT22;32206;51.446;6.792;2022-08-03T14:13:58;33.70;99.90
46492;DHT22;32206;51.446;6.792;2022-08-03T14:16:24;33.70;99.90
46492;DHT22;32206;51.446;6.792;2022-08-03T14:18:49;33.70;99.90
46492;DHT22;32206;51.446;6.792;2022-08-03T14:21:15;33.60;99.90
46492;DHT22;32206;51.446;6.792;2022-08-03T14:23:40;33.50;99.90
46492;DHT22;32206;51.446;6.792;2022-08-03T14:26:07;33.40;99.90
46492;DHT22;32206;51.446;6.792;2022-08-03T14:28:33;33.40;99.90
46492;DHT22;32206;51.446;6.792;2022-08-03T14:31:00;33.40;99.90
46492;DHT22;32206;51.446;6.792;2022-08-03T14:33:25;33.40;99.90
46492;DHT22;32206;51.446;6.792;2022-08-03T14:35:53;33.60;99.90
46492;DHT22;32206;51.446;6.792;2022-08-03T14:38:19;33.60;99.90
46492;DHT22;32206;51.446;6.792;2022-08-03T14:40:46;33.60;99.90
46492;DHT22;32206;51.446;6.792;2022-08-03T14:43:11;33.60;99.90
46492;DHT22;32206;51.446;6.792;2022-08-03T14:45:38;33.60;99.90
46492;DHT22;32206;51.446;6.792;2022-08-03T14:48:04;33.50;99.90
46492;DHT22;32206;51.446;6.792;2022-08-03T14:50:30;33.50;99.90
46492;DHT22;32206;51.446;6.792;2022-08-03T14:52:56;33.50;99.90
46492;DHT22;32206;51.446;6.792;2022-08-03T14:55:22;33.50;99.90
46492;DHT22;32206;51.446;6.792;2022-08-03T14:57:47;33.40;99.90
46492;DHT22;32206;51.446;6.792;2022-08-03T15:00:13;33.40;99.90
46492;DHT22;32206;51.446;6.792;2022-08-03T15:02:39;33.40;99.90
46492;DHT22;32206;51.446;6.792;2022-08-03T15:05:05;33.40;99.90
46492;DHT22;32206;51.446;6.792;2022-08-03T15:07:31;33.40;99.90
46492;DHT22;32206;51.446;6.792;2022-08-03T15:09:57;33.40;99.90
46492;DHT22;32206;51.446;6.792;2022-08-03T15:12:24;33.50;99.90
46492;DHT22;32206;51.446;6.792;2022-08-03T15:14:49;33.50;99.90
46492;DHT22;32206;51.446;6.792;2022-08-03T15:17:15;33.50;99.90
46492;DHT22;32206;51.446;6.792;2022-08-03T15:19:41;33.60;99.90
46492;DHT22;32206;51.446;6.792;2022-08-03T15:22:06;33.60;99.90
46492;DHT22;32206;51.446;6.792;2022-08-03T15:24:32;33.60;99.90
46492;DHT22;32206;51.446;6.792;2022-08-03T15:26:57;33.60;99.90
46492;DHT22;32206;51.446;6.792;2022-08-03T15:29:23;33.50;99.90
46492;DHT22;32206;51.446;6.792;2022-08-03T15:31:49;33.50;99.90
46492;DHT22;32206;51.446;6.792;2022-08-03T15:34:14;33.50;99.90
46492;DHT22;32206;51.446;6.792;2022-08-03T15:36:40;33.50;99.90
46492;DHT22;32206;51.446;6.792;2022-08-03T15:39:06;33.60;99.90
46492;DHT22;32206;51.446;6.792;2022-08-03T15:41:31;33.70;99.90
46492;DHT22;32206;51.446;6.792;2022-08-03T15:43:57;33.80;99.90
46492;DHT22;32206;51.446;6.792;2022-08-03T15:46:23;33.80;99.90
46492;DHT22;32206;51.446;6.792;2022-08-03T15:48:48;33.90;99.90
46492;DHT22;32206;51.446;6.792;2022-08-03T15:51:14;33.90;99.90
46492;DHT22;32206;51.446;6.792;2022-08-03T15:53:40;34.00;99.90
46492;DHT22;32206;51.446;6.792;2022-08-03T15:56:06;34.00;99.90
46492;DHT22;32206;51.446;6.792;2022-08-03T15:58:33;34.00;99.90
46492;DHT22;32206;51.446;6.792;2022-08-03T16:01:00;34.00;99.90
46492;DHT22;32206;51.446;6.792;2022-08-03T16:03:26;34.00;99.90
46492;DHT22;32206;51.446;6.792;2022-08-03T16:05:53;33.90;99.90
46492;DHT22;32206;51.446;6.792;2022-08-03T16:08:19;33.80;99.90
46492;DHT22;32206;51.446;6.792;2022-08-03T16:10:46;33.60;99.90
46492;DHT22;32206;51.446;6.792;2022-08-03T16:13:12;33.50;99.90
46492;DHT22;32206;51.446;6.792;2022-08-03T16:15:37;33.50;99.90
46492;DHT22;32206;51.446;6.792;2022-08-03T16:18:04;33.40;99.90
46492;DHT22;32206;51.446;6.792;2022-08-03T16:20:30;33.50;99.90
46492;DHT22;32206;51.446;6.792;2022-08-03T16:22:56;33.60;99.90